Time;durP1;ratioP1;P1;durP2;ratioP2;P2;SDS_P1;SDS_P2;PMS_P1;PMS_P2;Temp;Humidity;BMP_temperature;BMP_pressure;BME280_temperature;BME280_humidity;BME280_pressure;Samples;Min_cycle;Max_cycle;Signal;HPM_P1;HPM_P2
2021/09/06 00:01:05;;;;;;;2.28;1.33;;;16.10;77.40;;;;;;5134361;27;20029;-75
2021/09/06 00:03:30;;;;;;;1.65;1.15;;;16.00;77.50;;;;;;5134314;27;20489;-74
2021/09/06 00:05:57;;;;;;;1.85;1.40;;;16.00;77.60;;;;;;5134314;27;20056;-75
2021/09/06 00:08:23;;;;;;;1.85;1.42;;;15.90;77.60;;;;;;5133969;27;20068;-74
2021/09/06 00:11:01;;;;;;;1.73;1.33;;;15.90;77.70;;;;;;5133947;27;20029;-75
2021/09/06 00:13:26;;;;;;;1.48;1.38;;;15.90;77.70;;;;;;5134135;27;20446;-74
2021/09/06 00:15:52;;;;;;;2.38;1.73;;;15.90;77.80;;;;;;5134278;27;20095;-72
2021/09/06 00:18:17;;;;;;;1.52;1.42;;;15.90;77.90;;;;;;5134240;27;20110;-73
2021/09/06 00:20:43;;;;;;;2.60;1.75;;;15.90;78.00;;;;;;5134084;27;20070;-74
2021/09/06 00:23:10;;;;;;;2.50;1.70;;;15.80;78.00;;;;;;5134255;28;20027;-74
2021/09/06 00:25:35;;;;;;;1.50;1.40;;;15.80;78.10;;;;;;5133714;28;20031;-73
2021/09/06 00:28:01;;;;;;;1.60;1.38;;;15.80;78.20;;;;;;5134112;28;20029;-74
2021/09/06 00:30:27;;;;;;;2.67;1.55;;;15.80;78.20;;;;;;5134182;28;20026;-73
2021/09/06 00:32:52;;;;;;;3.28;2.10;;;15.80;78.20;;;;;;5134114;28;20478;-74
2021/09/06 00:35:18;;;;;;;2.45;1.63;;;15.70;78.30;;;;;;5134010;28;20046;-74
2021/09/06 00:37:44;;;;;;;2.35;1.35;;;15.70;78.40;;;;;;5134111;28;20475;-74
2021/09/06 00:40:10;;;;;;;2.47;1.58;;;15.70;78.50;;;;;;5133478;28;20022;-74
2021/09/06 00:42:35;;;;;;;1.80;1.27;;;15.70;78.50;;;;;;5133975;28;20023;-73
2021/09/06 00:45:01;;;;;;;2.63;1.50;;;15.60;78.60;;;;;;5133950;28;20564;-74
2021/09/06 00:47:27;;;;;;;1.83;1.40;;;15.60;78.70;;;;;;5133811;28;20072;-73
2021/09/06 00:49:52;;;;;;;3.05;1.85;;;15.50;78.80;;;;;;5133967;28;20023;-75
2021/09/06 00:52:18;;;;;;;2.67;1.80;;;15.50;78.90;;;;;;5133922;28;20059;-74
2021/09/06 00:54:43;;;;;;;3.50;2.38;;;15.50;79.00;;;;;;5133396;28;20024;-74
2021/09/06 00:57:09;;;;;;;2.67;1.90;;;15.40;79.00;;;;;;5133861;28;20088;-74
2021/09/06 00:59:35;;;;;;;2.25;1.90;;;15.40;79.10;;;;;;5133699;28;20027;-74
2021/09/06 01:02:00;;;;;;;3.10;1.80;;;15.40;79.10;;;;;;5133901;28;20075;-74
2021/09/06 01:04:26;;;;;;;2.03;1.48;;;15.40;79.20;;;;;;5133853;28;20106;-74
2021/09/06 01:06:51;;;;;;;1.60;1.50;;;15.40;79.30;;;;;;5133823;28;20023;-74
2021/09/06 01:09:17;;;;;;;2.95;2.08;;;15.30;79.20;;;;;;5133341;28;20087;-73
2021/09/06 01:11:42;;;;;;;2.58;1.60;;;15.30;79.30;;;;;;5133814;28;20420;-73
2021/09/06 01:14:08;;;;;;;3.70;1.77;;;15.30;79.40;;;;;;5133601;28;20065;-75
2021/09/06 01:16:33;;;;;;;1.98;1.77;;;15.30;79.50;;;;;;5133698;28;20564;-74
2021/09/06 01:18:59;;;;;;;2.97;2.17;;;15.20;79.50;;;;;;5133844;27;20119;-75
2021/09/06 01:21:24;;;;;;;2.65;1.73;;;15.20;79.50;;;;;;5137521;27;20148;-74
2021/09/06 01:23:50;;;;;;;1.65;1.40;;;15.20;79.50;;;;;;5136720;27;20018;-73
2021/09/06 01:26:15;;;;;;;2.75;1.95;;;15.20;79.60;;;;;;5137498;27;20487;-74
2021/09/06 01:28:41;;;;;;;3.22;1.83;;;15.10;79.60;;;;;;5137230;27;20592;-74
2021/09/06 01:31:06;;;;;;;2.80;1.83;;;15.10;79.70;;;;;;5137406;27;20027;-74
2021/09/06 01:33:32;;;;;;;2.35;1.63;;;15.10;79.70;;;;;;5137034;27;20026;-73
2021/09/06 01:35:57;;;;;;;1.92;1.65;;;15.10;79.70;;;;;;5118889;27;20030;-73
2021/09/06 01:38:23;;;;;;;2.22;1.63;;;15.10;79.80;;;;;;5136728;27;20047;-74
2021/09/06 01:40:48;;;;;;;3.15;1.98;;;15.10;80.40;;;;;;5137134;27;20054;-74
2021/09/06 01:43:14;;;;;;;1.98;1.45;;;15.00;79.80;;;;;;5118603;27;20015;-74
2021/09/06 01:45:40;;;;;;;3.13;2.05;;;15.00;79.80;;;;;;5136847;27;20109;-74
2021/09/06 01:48:05;;;;;;;3.20;1.77;;;15.00;79.80;;;;;;5137057;27;20047;-75
2021/09/06 01:50:31;;;;;;;2.33;1.75;;;15.00;79.90;;;;;;5137065;27;20038;-74
2021/09/06 01:52:56;;;;;;;2.08;1.85;;;15.00;79.90;;;;;;5136333;27;20068;-73
2021/09/06 01:55:22;;;;;;;2.45;1.80;;;15.00;80.00;;;;;;5137019;27;20076;-74
2021/09/06 01:57:48;;;;;;;2.47;1.70;;;15.00;80.00;;;;;;5136825;27;20084;-74
2021/09/06 02:00:14;;;;;;;2.03;1.75;;;14.90;80.00;;;;;;5137036;27;20087;-74
2021/09/06 02:02:39;;;;;;;2.60;1.80;;;14.90;80.10;;;;;;5136776;27;20051;-74
2021/09/06 02:05:06;;;;;;;2.88;1.75;;;14.90;80.20;;;;;;5136625;27;20043;-75
2021/09/06 02:07:31;;;;;;;2.17;1.60;;;14.80;80.20;;;;;;5136221;27;20046;-74
2021/09/06 02:09:57;;;;;;;3.70;2.33;;;14.80;80.30;;;;;;5136534;27;20380;-74
2021/09/06 02:12:22;;;;;;;2.25;1.70;;;14.80;80.40;;;;;;5118059;27;20019;-75
2021/09/06 02:14:48;;;;;;;2.95;1.85;;;14.80;80.40;;;;;;5136428;27;20019;-73
2021/09/06 02:17:13;;;;;;;3.75;2.13;;;14.80;80.40;;;;;;5136494;27;20540;-74
2021/09/06 02:19:39;;;;;;;6.45;2.90;;;14.70;80.50;;;;;;5136192;27;20051;-74
2021/09/06 02:22:04;;;;;;;2.53;1.90;;;14.70;80.60;;;;;;5135718;27;20094;-74
2021/09/06 02:24:30;;;;;;;2.58;1.75;;;14.70;80.70;;;;;;5136290;27;20027;-74
2021/09/06 02:26:58;;;;;;;2.92;2.00;;;14.60;80.70;;;;;;5136167;27;20015;-75
2021/09/06 02:29:24;;;;;;;2.55;1.92;;;14.60;80.80;;;;;;5136273;27;20033;-73
2021/09/06 02:31:49;;;;;;;2.83;1.92;;;14.50;80.80;;;;;;5135747;27;20015;-74
2021/09/06 02:34:15;;;;;;;2.25;1.52;;;14.50;80.90;;;;;;5136090;27;20408;-74
2021/09/06 02:36:40;;;;;;;2.80;2.10;;;14.50;81.00;;;;;;5135753;27;20024;-74
2021/09/06 02:39:06;;;;;;;2.20;1.63;;;14.50;81.00;;;;;;5136101;27;20023;-74
2021/09/06 02:41:32;;;;;;;2.97;1.60;;;14.40;81.00;;;;;;5136021;27;20023;-74
2021/09/06 02:43:57;;;;;;;2.55;1.67;;;14.40;81.10;;;;;;5117461;27;20046;-74
2021/09/06 02:46:23;;;;;;;2.42;1.65;;;14.40;81.10;;;;;;5135724;27;20027;-73
2021/09/06 02:48:48;;;;;;;2.85;1.90;;;14.40;81.20;;;;;;5135877;27;20404;-74
2021/09/06 02:51:14;;;;;;;2.72;2.33;;;14.40;81.20;;;;;;5135396;27;20027;-74
2021/09/06 02:53:39;;;;;;;3.17;2.03;;;14.30;81.20;;;;;;5135779;27;20054;-74
2021/09/06 02:56:05;;;;;;;3.03;1.88;;;14.30;81.20;;;;;;5135675;27;20476;-74
2021/09/06 02:58:31;;;;;;;3.67;2.22;;;14.30;81.30;;;;;;5135594;27;20024;-73
2021/09/06 03:00:56;;;;;;;2.30;1.73;;;14.20;81.30;;;;;;5135529;27;20023;-73
2021/09/06 03:03:22;;;;;;;2.35;1.60;;;14.20;81.40;;;;;;5135587;27;20016;-73
2021/09/06 03:05:48;;;;;;;2.78;1.83;;;14.20;81.50;;;;;;5134868;27;20424;-73
2021/09/06 03:08:13;;;;;;;2.80;1.67;;;14.20;81.50;;;;;;5135402;27;20361;-74
2021/09/06 03:10:39;;;;;;;2.55;2.33;;;14.20;81.50;;;;;;5135453;27;20030;-74
2021/09/06 03:13:04;;;;;;;2.58;2.17;;;14.20;81.60;;;;;;5135352;27;20495;-74
2021/09/06 03:15:30;;;;;;;1.92;1.70;;;14.20;81.50;;;;;;5135396;27;20034;-74
2021/09/06 03:17:56;;;;;;;3.60;2.05;;;14.20;81.60;;;;;;5135205;27;20047;-74
2021/09/06 03:20:22;;;;;;;3.47;2.35;;;14.20;81.60;;;;;;5134586;27;20047;-75
2021/09/06 03:22:47;;;;;;;3.70;2.10;;;14.10;81.60;;;;;;5135128;27;20067;-74
2021/09/06 03:25:13;;;;;;;3.33;2.03;;;14.10;81.60;;;;;;5134979;27;20383;-74
2021/09/06 03:27:38;;;;;;;4.10;2.00;;;14.10;81.60;;;;;;5116680;27;20023;-75
2021/09/06 03:30:04;;;;;;;2.10;1.90;;;14.10;81.70;;;;;;5135005;27;20023;-75
2021/09/06 03:32:30;;;;;;;3.50;1.73;;;14.10;81.80;;;;;;5134965;27;20024;-74
2021/09/06 03:34:55;;;;;;;3.35;1.88;;;14.10;81.90;;;;;;5134495;27;20015;-73
2021/09/06 03:37:21;;;;;;;3.38;2.42;;;14.00;81.90;;;;;;5134901;27;20031;-74
2021/09/06 03:39:47;;;;;;;2.70;1.98;;;14.00;81.80;;;;;;5134732;27;20019;-74
2021/09/06 03:42:13;;;;;;;3.40;2.63;;;14.00;81.80;;;;;;5134000;27;20030;-74
2021/09/06 03:44:38;;;;;;;2.33;2.08;;;14.00;81.90;;;;;;5134778;27;20388;-73
2021/09/06 03:47:04;;;;;;;2.97;1.83;;;14.00;82.00;;;;;;5134797;27;20053;-73
2021/09/06 03:49:29;;;;;;;2.92;2.10;;;14.00;82.00;;;;;;5115767;27;20066;-74
2021/09/06 03:51:55;;;;;;;2.80;1.88;;;14.00;82.00;;;;;;5134530;27;20083;-74
2021/09/06 03:54:20;;;;;;;2.80;1.85;;;14.00;82.10;;;;;;5134547;27;20106;-74
2021/09/06 03:56:46;;;;;;;2.80;1.73;;;14.00;82.20;;;;;;5134609;27;20026;-74
2021/09/06 03:59:12;;;;;;;3.38;1.90;;;14.00;82.10;;;;;;5134593;27;20106;-74
2021/09/06 04:01:37;;;;;;;2.53;1.65;;;14.00;82.10;;;;;;5134477;27;20052;-75
2021/09/06 04:04:03;;;;;;;2.65;1.70;;;14.00;82.20;;;;;;5134022;27;20019;-74
2021/09/06 04:06:29;;;;;;;2.17;1.70;;;14.00;82.10;;;;;;5134565;27;20035;-75
2021/09/06 04:08:55;;;;;;;2.25;1.70;;;14.10;82.10;;;;;;5115912;27;20019;-73
2021/09/06 04:11:21;;;;;;;2.60;1.85;;;14.10;82.20;;;;;;5134310;27;20026;-74
2021/09/06 04:13:47;;;;;;;1.92;1.70;;;14.10;82.20;;;;;;5134372;27;20023;-75
2021/09/06 04:16:12;;;;;;;2.97;2.10;;;14.10;82.30;;;;;;5134460;27;20034;-73
2021/09/06 04:18:38;;;;;;;2.30;1.70;;;14.00;82.30;;;;;;5133759;27;20099;-73
2021/09/06 04:21:04;;;;;;;3.63;2.05;;;14.00;82.30;;;;;;5134350;27;20034;-73
2021/09/06 04:23:31;;;;;;;3.33;2.30;;;13.90;82.40;;;;;;5134011;28;20023;-73
2021/09/06 04:25:56;;;;;;;1.73;1.55;;;13.90;82.50;;;;;;5134129;28;20027;-74
2021/09/06 04:28:22;;;;;;;3.10;2.45;;;13.90;82.60;;;;;;5134168;28;20038;-73
2021/09/06 04:30:47;;;;;;;3.00;1.92;;;13.90;82.60;;;;;;5115743;28;20030;-74
2021/09/06 04:33:13;;;;;;;3.10;2.20;;;13.90;82.60;;;;;;5133564;28;20011;-75
2021/09/06 04:35:38;;;;;;;2.03;1.60;;;13.90;82.60;;;;;;5134137;28;20475;-74
2021/09/06 04:38:04;;;;;;;2.13;1.50;;;13.90;82.60;;;;;;5134103;28;20072;-74
2021/09/06 04:40:30;;;;;;;2.75;1.65;;;13.90;83.20;;;;;;5134056;28;20016;-74
2021/09/06 04:42:55;;;;;;;2.70;1.52;;;13.90;82.60;;;;;;5134240;28;20046;-74
2021/09/06 04:45:21;;;;;;;1.90;1.70;;;13.90;82.70;;;;;;5133901;28;20206;-74
2021/09/06 04:47:46;;;;;;;2.83;1.90;;;13.80;82.70;;;;;;5133680;28;20019;-74
2021/09/06 04:50:12;;;;;;;3.00;1.90;;;13.80;82.70;;;;;;5134058;28;20019;-74
2021/09/06 04:52:37;;;;;;;3.72;1.77;;;13.80;82.80;;;;;;5133863;28;20024;-75
2021/09/06 04:55:03;;;;;;;2.17;1.70;;;13.80;82.90;;;;;;5137720;27;20122;-74
2021/09/06 04:57:29;;;;;;;2.88;2.03;;;13.70;83.00;;;;;;5138107;27;20042;-74
2021/09/06 04:59:54;;;;;;;3.22;1.95;;;13.70;83.00;;;;;;5137523;27;20031;-75
2021/09/06 05:02:20;;;;;;;3.55;1.70;;;13.70;83.10;;;;;;5137902;27;20011;-74
2021/09/06 05:04:45;;;;;;;3.03;2.05;;;13.70;83.00;;;;;;5137886;27;20391;-75
2021/09/06 05:07:11;;;;;;;1.83;1.73;;;13.70;83.00;;;;;;5137896;27;20047;-74
2021/09/06 05:09:36;;;;;;;2.42;1.65;;;13.70;83.00;;;;;;5137875;27;20027;-74
2021/09/06 05:12:02;;;;;;;2.53;1.77;;;13.70;83.10;;;;;;5137768;27;20047;-73
2021/09/06 05:14:28;;;;;;;2.95;1.73;;;13.70;83.00;;;;;;5137107;27;20027;-69
2021/09/06 05:16:53;;;;;;;3.63;2.33;;;13.80;83.00;;;;;;5137706;27;20018;-70
2021/09/06 05:19:19;;;;;;;2.58;1.80;;;13.80;83.00;;;;;;5137453;27;20050;-73
2021/09/06 05:21:44;;;;;;;3.45;2.17;;;13.70;83.00;;;;;;5137396;27;20019;-72
2021/09/06 05:24:10;;;;;;;3.70;1.70;;;13.80;83.00;;;;;;5137366;27;20034;-73
2021/09/06 05:26:35;;;;;;;3.17;1.80;;;13.70;83.00;;;;;;5137452;27;20027;-73
2021/09/06 05:29:01;;;;;;;2.97;1.58;;;13.70;83.00;;;;;;5136938;27;20038;-74
2021/09/06 05:31:26;;;;;;;3.17;1.98;;;13.70;83.10;;;;;;5137257;27;20019;-72
2021/09/06 05:33:52;;;;;;;2.22;1.90;;;13.70;83.10;;;;;;5137198;27;20031;-74
2021/09/06 05:36:18;;;;;;;2.10;1.55;;;13.70;83.10;;;;;;5137265;27;20023;-73
2021/09/06 05:38:44;;;;;;;2.22;1.48;;;13.80;83.20;;;;;;5137145;27;20084;-74
2021/09/06 05:41:10;;;;;;;2.10;1.60;;;13.80;83.00;;;;;;5118714;27;20087;-74
2021/09/06 05:43:35;;;;;;;2.38;1.60;;;13.90;83.00;;;;;;5136608;27;20027;-75
2021/09/06 05:46:02;;;;;;;2.75;1.58;;;13.90;82.80;;;;;;5137012;27;20114;-74
2021/09/06 05:48:27;;;;;;;1.85;1.60;;;14.00;82.70;;;;;;5137254;27;20025;-74
2021/09/06 05:50:53;;;;;;;1.20;1.10;;;14.10;82.60;;;;;;5136896;27;20019;-73
2021/09/06 05:53:19;;;;;;;1.98;1.48;;;14.10;82.50;;;;;;5136939;27;20015;-74
2021/09/06 05:55:45;;;;;;;2.35;1.70;;;14.20;82.40;;;;;;5118412;27;20027;-73
2021/09/06 05:58:10;;;;;;;2.40;1.65;;;14.20;82.40;;;;;;5136288;27;20375;-73
2021/09/06 06:00:36;;;;;;;2.90;1.90;;;14.30;82.40;;;;;;5136817;27;20027;-73
2021/09/06 06:03:01;;;;;;;1.88;1.52;;;14.30;82.30;;;;;;5136751;27;20023;-74
2021/09/06 06:05:27;;;;;;;1.58;1.33;;;14.40;82.30;;;;;;5135732;27;20038;-73
2021/09/06 06:07:52;;;;;;;2.00;1.77;;;14.40;82.40;;;;;;5136463;27;20019;-73
2021/09/06 06:10:18;;;;;;;2.35;1.65;;;14.50;82.40;;;;;;5136697;27;20027;-74
2021/09/06 06:12:44;;;;;;;3.05;1.98;;;14.50;82.30;;;;;;5136107;27;20023;-75
2021/09/06 06:15:10;;;;;;;2.08;1.83;;;14.60;82.30;;;;;;5136537;27;20031;-73
2021/09/06 06:17:36;;;;;;;1.75;1.30;;;14.70;82.20;;;;;;5136272;27;20020;-74
2021/09/06 06:20:02;;;;;;;2.28;1.55;;;14.80;82.20;;;;;;5136442;27;20043;-74
2021/09/06 06:22:28;;;;;;;2.95;1.60;;;14.90;82.10;;;;;;5136379;27;20019;-74
2021/09/06 06:24:53;;;;;;;2.58;1.70;;;14.90;82.00;;;;;;5136210;27;20124;-73
2021/09/06 06:27:19;;;;;;;2.53;1.55;;;15.00;81.90;;;;;;5135834;27;20023;-75
2021/09/06 06:29:44;;;;;;;2.10;1.50;;;15.10;81.90;;;;;;5136447;27;20023;-75
2021/09/06 06:32:10;;;;;;;2.55;1.50;;;15.20;81.80;;;;;;5136130;27;20023;-74
2021/09/06 06:34:36;;;;;;;2.55;1.42;;;15.20;81.80;;;;;;5136362;27;20030;-76
2021/09/06 06:37:02;;;;;;;2.05;1.38;;;15.30;81.80;;;;;;5136008;27;20023;-73
2021/09/06 06:39:28;;;;;;;1.75;1.25;;;15.40;81.90;;;;;;5135976;27;20460;-74
2021/09/06 06:41:53;;;;;;;1.92;1.35;;;15.50;81.80;;;;;;5135549;27;20094;-74
2021/09/06 06:44:19;;;;;;;1.33;1.23;;;15.60;81.80;;;;;;5135806;27;20027;-74
2021/09/06 06:46:44;;;;;;;1.67;1.17;;;15.70;81.80;;;;;;5135978;27;20035;-74
2021/09/06 06:49:10;;;;;;;1.67;1.20;;;15.70;81.60;;;;;;5135864;27;20479;-73
2021/09/06 06:51:36;;;;;;;1.77;1.17;;;15.80;81.60;;;;;;5135700;27;20498;-74
2021/09/06 06:54:02;;;;;;;1.65;1.52;;;15.90;81.70;;;;;;5135684;27;20027;-74
2021/09/06 06:56:27;;;;;;;1.88;1.48;;;16.00;81.60;;;;;;5135232;27;20097;-74
2021/09/06 06:58:53;;;;;;;2.35;1.50;;;16.10;81.60;;;;;;5135675;27;20099;-73
2021/09/06 07:01:18;;;;;;;1.13;0.93;;;16.10;81.60;;;;;;5135616;27;20054;-74
2021/09/06 07:03:44;;;;;;;1.30;1.20;;;16.20;81.50;;;;;;5135400;27;20365;-75
2021/09/06 07:06:09;;;;;;;1.55;1.25;;;16.30;81.40;;;;;;5135232;27;20038;-74
2021/09/06 07:08:35;;;;;;;1.55;1.23;;;16.40;81.40;;;;;;5135594;27;20095;-75
2021/09/06 07:11:01;;;;;;;1.40;1.27;;;16.50;81.30;;;;;;5134836;27;20023;-74
2021/09/06 07:13:26;;;;;;;1.20;1.10;;;16.60;81.20;;;;;;5135342;27;20023;-74
2021/09/06 07:15:52;;;;;;;1.67;1.42;;;16.60;81.20;;;;;;5135247;27;20058;-75
2021/09/06 07:18:17;;;;;;;1.90;1.27;;;16.70;81.30;;;;;;5135657;27;20050;-74
2021/09/06 07:20:43;;;;;;;1.33;1.23;;;16.70;81.20;;;;;;5135075;27;20062;-74
2021/09/06 07:23:08;;;;;;;2.08;1.42;;;16.80;81.20;;;;;;5135076;27;20023;-74
2021/09/06 07:25:34;;;;;;;1.55;1.23;;;16.90;81.10;;;;;;5134625;27;20105;-74
2021/09/06 07:28:00;;;;;;;3.17;1.48;;;17.00;81.10;;;;;;5134983;27;20019;-75
2021/09/06 07:30:25;;;;;;;1.92;1.20;;;17.00;81.10;;;;;;5134990;27;20544;-74
2021/09/06 07:32:51;;;;;;;2.25;1.60;;;17.20;81.10;;;;;;5134928;27;20015;-75
2021/09/06 07:35:17;;;;;;;1.80;1.38;;;17.30;81.00;;;;;;5134920;27;20023;-75
2021/09/06 07:37:43;;;;;;;1.90;1.50;;;17.40;80.90;;;;;;5134926;27;20023;-74
2021/09/06 07:40:13;;;;;;;2.20;1.52;;;17.50;80.80;;;;;;5115900;27;20087;-75
2021/09/06 07:42:39;;;;;;;1.85;1.15;;;17.60;80.80;;;;;;5135076;27;20046;-75
2021/09/06 07:45:07;;;;;;;2.40;1.70;;;17.70;80.80;;;;;;5134645;27;20031;-75
2021/09/06 07:47:34;;;;;;;2.60;1.70;;;17.80;80.70;;;;;;5134761;27;20446;-74
2021/09/06 07:50:00;;;;;;;2.75;1.85;;;17.90;80.70;;;;;;5134536;27;20106;-74
2021/09/06 07:52:26;;;;;;;1.90;1.50;;;17.90;80.70;;;;;;5134645;27;20026;-75
2021/09/06 07:54:52;;;;;;;2.05;1.70;;;18.00;80.70;;;;;;5134091;27;20023;-74
2021/09/06 07:57:17;;;;;;;3.20;1.67;;;18.10;80.70;;;;;;5134446;27;20084;-73
2021/09/06 07:59:43;;;;;;;1.95;1.40;;;18.20;80.60;;;;;;5134421;27;20563;-74
2021/09/06 08:02:09;;;;;;;2.40;1.75;;;18.30;80.70;;;;;;5134383;27;20390;-74
2021/09/06 08:04:34;;;;;;;1.75;1.40;;;18.40;80.60;;;;;;5134254;27;20035;-74
2021/09/06 08:07:00;;;;;;;2.75;1.80;;;18.50;80.60;;;;;;5134327;27;20495;-78
2021/09/06 08:09:26;;;;;;;2.38;1.48;;;18.50;80.50;;;;;;5133981;27;20494;-75
2021/09/06 08:11:54;;;;;;;2.53;1.63;;;18.60;80.50;;;;;;5134310;27;20015;-75
2021/09/06 08:14:21;;;;;;;1.60;1.30;;;18.70;80.50;;;;;;5134380;27;20095;-76
2021/09/06 08:16:47;;;;;;;2.28;1.73;;;18.70;80.40;;;;;;5134287;27;20479;-75
2021/09/06 08:19:12;;;;;;;2.22;1.60;;;18.80;80.40;;;;;;5133907;27;20055;-74
2021/09/06 08:21:39;;;;;;;2.30;1.50;;;18.90;80.40;;;;;;5134407;27;20023;-74
2021/09/06 08:24:05;;;;;;;1.45;1.35;;;19.00;80.30;;;;;;5133732;27;20049;-75
2021/09/06 08:26:30;;;;;;;1.63;1.52;;;19.10;80.30;;;;;;5134025;28;20019;-74
2021/09/06 08:28:56;;;;;;;2.10;1.35;;;19.20;80.20;;;;;;5115272;28;20019;-74
2021/09/06 08:31:22;;;;;;;1.98;1.33;;;19.30;80.10;;;;;;5133961;28;20065;-74
2021/09/06 08:33:47;;;;;;;1.58;1.30;;;19.40;79.90;;;;;;5134195;28;20031;-74
2021/09/06 08:36:13;;;;;;;2.33;1.67;;;19.40;79.80;;;;;;5133910;28;20023;-74
2021/09/06 08:38:39;;;;;;;1.80;1.30;;;19.50;79.70;;;;;;5133596;28;20031;-74
2021/09/06 08:41:06;;;;;;;1.98;1.50;;;19.50;79.60;;;;;;5134043;28;20124;-75
2021/09/06 08:43:32;;;;;;;1.50;1.40;;;19.60;80.30;;;;;;5115595;28;20071;-73
2021/09/06 08:46:02;;;;;;;1.88;1.70;;;19.60;79.60;;;;;;5133922;28;20027;-78
2021/09/06 08:48:28;;;;;;;1.75;1.20;;;19.70;79.50;;;;;;5133910;28;20536;-75
2021/09/06 08:50:54;;;;;;;1.25;1.15;;;19.70;79.50;;;;;;5115614;28;20019;-74
2021/09/06 08:53:20;;;;;;;1.95;1.55;;;19.70;79.50;;;;;;5133354;28;20015;-73
2021/09/06 08:55:46;;;;;;;1.70;1.50;;;19.90;79.60;;;;;;5133925;28;20023;-72
2021/09/06 08:58:11;;;;;;;1.90;1.60;;;19.90;79.40;;;;;;5133832;28;20023;-74
2021/09/06 09:00:37;;;;;;;2.22;1.75;;;20.00;79.30;;;;;;5133742;28;20027;-75
2021/09/06 09:03:10;;;;;;;1.58;1.25;;;20.10;79.20;;;;;;5133927;28;20015;-74
2021/09/06 09:05:36;;;;;;;2.00;1.25;;;20.20;79.00;;;;;;5115302;28;20033;-75
2021/09/06 09:08:02;;;;;;;1.45;1.13;;;20.30;79.10;;;;;;5133181;28;20023;-73
2021/09/06 09:10:32;;;;;;;1.52;1.30;;;20.40;79.00;;;;;;5133755;28;20103;-74
2021/09/06 09:13:07;;;;;;;2.05;1.45;;;20.40;79.00;;;;;;5133698;28;20378;-76
2021/09/06 09:15:33;;;;;;;1.92;1.52;;;20.50;78.90;;;;;;5133750;28;20088;-76
2021/09/06 09:18:00;;;;;;;2.25;1.65;;;20.50;79.00;;;;;;5133700;28;20099;-76
2021/09/06 09:20:42;;;;;;;2.08;1.73;;;20.50;79.00;;;;;;5133610;28;20129;-75
2021/09/06 09:23:09;;;;;;;1.42;1.20;;;20.50;78.80;;;;;;5133183;28;20027;-75
2021/09/06 09:25:37;;;;;;;1.90;1.27;;;20.40;79.00;;;;;;5133498;28;20039;-76
2021/09/06 09:28:03;;;;;;;2.38;1.73;;;20.50;79.00;;;;;;5133646;28;20019;-75
2021/09/06 09:30:32;;;;;;;1.98;1.70;;;20.60;79.00;;;;;;5133583;28;20026;-75
2021/09/06 09:33:23;;;;;;;1.50;1.40;;;20.60;79.00;;;;;;5133553;28;20024;-75
2021/09/06 09:35:49;;;;;;;2.45;1.52;;;20.70;78.80;;;;;;5128090;28;20502;-74
2021/09/06 09:38:15;;;;;;;2.92;1.60;;;20.80;78.90;;;;;;5133396;28;20019;-75
2021/09/06 09:40:46;;;;;;;1.75;1.38;;;20.80;78.70;;;;;;5134746;27;20094;-75
2021/09/06 09:43:11;;;;;;;2.28;1.50;;;20.90;78.80;;;;;;5137291;27;20027;-76
2021/09/06 09:45:37;;;;;;;1.75;1.40;;;20.90;78.70;;;;;;5136968;27;20042;-74
2021/09/06 09:48:08;;;;;;;1.85;1.42;;;21.00;78.50;;;;;;5137044;27;20016;-75
2021/09/06 09:50:37;;;;;;;2.45;1.38;;;21.10;78.30;;;;;;5136487;27;20051;-74
2021/09/06 09:53:03;;;;;;;2.22;1.65;;;21.20;78.10;;;;;;5136935;27;20016;-74
2021/09/06 09:55:34;;;;;;;2.90;1.60;;;21.20;78.00;;;;;;5137048;27;20023;-76
2021/09/06 09:58:00;;;;;;;1.67;1.30;;;21.20;77.90;;;;;;5136383;27;20112;-75
2021/09/06 10:00:26;;;;;;;1.75;1.35;;;21.20;77.80;;;;;;5136888;27;20031;-74
2021/09/06 10:02:55;;;;;;;1.10;1.05;;;21.30;77.70;;;;;;5137050;27;20072;-76
2021/09/06 10:05:34;;;;;;;2.50;1.52;;;21.30;77.70;;;;;;5136166;27;20023;-76
2021/09/06 10:08:05;;;;;;;2.78;1.65;;;21.40;77.50;;;;;;5136720;27;20091;-73
2021/09/06 10:10:36;;;;;;;1.92;1.15;;;21.50;77.40;;;;;;5136790;27;20022;-73
2021/09/06 10:13:16;;;;;;;1.55;1.30;;;21.60;77.10;;;;;;5136606;27;20467;-74
2021/09/06 10:15:44;;;;;;;2.10;1.42;;;21.70;77.00;;;;;;5136395;27;20037;-74
2021/09/06 10:18:20;;;;;;;2.55;1.95;;;21.80;77.00;;;;;;5136380;27;20436;-74
2021/09/06 10:20:48;;;;;;;1.65;1.30;;;21.80;77.40;;;;;;5135847;27;20047;-73
2021/09/06 10:23:14;;;;;;;1.55;1.40;;;21.80;76.90;;;;;;5136603;27;20459;-75
2021/09/06 10:25:42;;;;;;;1.73;1.27;;;21.90;76.90;;;;;;5136342;27;20031;-74
2021/09/06 10:28:11;;;;;;;1.27;1.13;;;21.90;76.90;;;;;;5136358;27;20095;-74
2021/09/06 10:30:48;;;;;;;2.13;1.45;;;22.00;76.70;;;;;;5136198;27;20514;-74
2021/09/06 10:33:29;;;;;;;1.40;1.30;;;22.20;76.30;;;;;;5136228;27;20023;-73
2021/09/06 10:36:06;;;;;;;2.67;1.80;;;22.30;76.10;;;;;;5136117;27;20023;-74
2021/09/06 10:38:43;;;;;;;1.52;1.25;;;22.40;75.90;;;;;;5135881;27;20035;-74
2021/09/06 10:41:12;;;;;;;1.33;1.05;;;22.50;75.80;;;;;;5136284;27;20506;-76
2021/09/06 10:43:52;;;;;;;1.20;1.10;;;22.50;75.60;;;;;;5136116;27;20019;-75
2021/09/06 10:46:20;;;;;;;2.13;1.50;;;22.70;75.40;;;;;;5135846;27;20069;-74
2021/09/06 10:48:46;;;;;;;2.17;1.35;;;22.70;75.30;;;;;;5135201;27;20035;-76
2021/09/06 10:51:11;;;;;;;1.10;1.02;;;22.70;75.40;;;;;;5120983;27;20356;-74
2021/09/06 10:53:38;;;;;;;1.75;1.30;;;22.80;75.30;;;;;;5114470;28;20019;-74
2021/09/06 10:56:05;;;;;;;0.98;0.93;;;22.90;74.90;;;;;;5114674;28;20016;-74
2021/09/06 10:58:31;;;;;;;1.15;1.05;;;23.00;74.60;;;;;;5115202;28;20468;-75
2021/09/06 11:00:59;;;;;;;1.23;1.13;;;23.10;74.50;;;;;;5114939;28;20019;-75
2021/09/06 11:03:32;;;;;;;0.93;0.88;;;23.10;74.10;;;;;;5114664;28;20106;-76
2021/09/06 11:05:58;;;;;;;1.20;1.10;;;23.10;74.10;;;;;;5114956;28;20032;-75
2021/09/06 11:08:26;;;;;;;0.82;0.70;;;23.10;74.00;;;;;;5115068;28;20016;-74
2021/09/06 11:10:55;;;;;;;1.10;1.05;;;23.10;73.90;;;;;;5114910;28;20472;-77
2021/09/06 11:13:22;;;;;;;1.23;1.08;;;23.00;73.60;;;;;;5114882;28;20380;-73
2021/09/06 11:15:48;;;;;;;1.05;0.95;;;23.10;73.70;;;;;;5114540;28;20028;-75
2021/09/06 11:18:14;;;;;;;0.68;0.68;;;23.10;73.50;;;;;;5114188;28;20040;-74
2021/09/06 11:20:43;;;;;;;1.08;0.93;;;23.10;73.40;;;;;;5114605;28;20130;-75
2021/09/06 11:23:09;;;;;;;;;;;23.10;73.10;;;;;;5113779;27;20484;-74
2021/09/06 11:25:38;;;;;;;0.80;0.80;;;23.00;73.50;;;;;;5132057;27;19955;-73
2021/09/06 11:28:07;;;;;;;1.08;0.98;;;23.00;73.30;;;;;;5109057;28;20050;-73
2021/09/06 11:30:36;;;;;;;1.27;0.90;;;23.00;73.10;;;;;;5115233;27;20031;-73
2021/09/06 11:33:05;;;;;;;0.77;0.75;;;23.10;72.80;;;;;;5126272;22;20091;-83
2021/09/06 11:35:35;;;;;;;1.02;0.90;;;23.20;72.60;;;;;;5089785;28;20091;-84
2021/09/06 11:38:02;;;;;;;1.27;1.10;;;23.20;72.30;;;;;;5099253;28;20020;-84
2021/09/06 11:40:29;;;;;;;1.30;1.20;;;23.10;72.30;;;;;;5096076;28;20578;-83
2021/09/06 11:42:55;;;;;;;2.20;1.40;;;23.20;72.20;;;;;;5113809;28;20035;-83
2021/09/06 11:45:21;;;;;;;1.33;1.10;;;23.30;71.90;;;;;;5107453;28;20353;-83
2021/09/06 11:47:47;;;;;;;0.82;0.82;;;23.50;71.60;;;;;;5093373;28;20020;-82
2021/09/06 11:50:15;;;;;;;1.02;0.80;;;23.60;71.40;;;;;;5076329;28;20059;-83
2021/09/06 11:52:43;;;;;;;1.10;1.00;;;23.80;71.80;;;;;;5093710;28;20205;-82
2021/09/06 11:55:17;;;;;;;1.30;1.20;;;23.90;70.80;;;;;;5096957;28;20099;-85
2021/09/06 11:57:44;;;;;;;1.35;1.15;;;23.90;70.50;;;;;;5104755;28;20040;-82
2021/09/06 12:00:11;;;;;;;1.60;1.23;;;24.00;70.50;;;;;;5077347;28;20024;-83
2021/09/06 12:02:50;;;;;;;1.75;1.40;;;24.20;70.30;;;;;;5093387;28;20460;-81
2021/09/06 12:05:16;;;;;;;1.40;1.30;;;24.10;70.20;;;;;;5094446;28;20047;-82
2021/09/06 12:07:46;;;;;;;1.23;1.02;;;24.10;70.50;;;;;;5094662;28;20027;-85
2021/09/06 12:10:25;;;;;;;1.38;0.88;;;24.30;70.50;;;;;;5094050;28;20384;-83
2021/09/06 12:12:58;;;;;;;1.48;1.15;;;24.40;70.30;;;;;;5094450;28;20024;-83
2021/09/06 12:15:23;;;;;;;1.33;0.88;;;24.60;70.00;;;;;;5075827;28;20027;-84
2021/09/06 12:17:49;;;;;;;1.50;1.08;;;24.70;70.00;;;;;;5094604;28;20024;-83
2021/09/06 12:20:15;;;;;;;1.35;1.08;;;24.90;69.80;;;;;;5094109;28;20031;-82
2021/09/06 12:22:40;;;;;;;1.30;1.20;;;25.10;69.60;;;;;;5093702;28;20103;-82
2021/09/06 12:25:07;;;;;;;1.33;1.10;;;25.30;69.40;;;;;;5093576;28;20430;-83
2021/09/06 12:27:35;;;;;;;1.45;0.95;;;25.50;69.00;;;;;;5093949;28;20032;-82
2021/09/06 12:30:00;;;;;;;1.20;1.10;;;25.80;68.60;;;;;;5093231;28;20048;-83
2021/09/06 12:32:27;;;;;;;1.42;1.05;;;26.10;68.20;;;;;;5093654;28;20074;-84
2021/09/06 12:34:53;;;;;;;2.00;1.33;;;26.40;67.90;;;;;;5094356;28;20081;-83
2021/09/06 12:37:22;;;;;;;1.42;1.25;;;26.60;67.50;;;;;;5075729;28;20048;-83
2021/09/06 12:39:48;;;;;;;1.20;1.10;;;26.80;67.30;;;;;;5075732;28;20016;-83
2021/09/06 12:42:13;;;;;;;1.25;1.15;;;27.00;67.30;;;;;;5093590;28;20494;-82
2021/09/06 12:44:39;;;;;;;1.20;1.10;;;27.30;67.40;;;;;;5092937;28;20114;-82